createdAt,value
2018-06-20T03:47:50.617Z,91.7
2018-06-20T03:48:10.765Z,92.1
2018-06-20T03:48:30.940Z,91.4
2018-06-20T03:48:51.107Z,91.5
2018-06-20T03:54:30.251Z,91.3
2018-06-20T04:19:30.508Z,89.9
2018-06-20T04:19:50.668Z,90.4
2018-06-20T04:21:09.522Z,89.9
2018-06-20T04:22:23.779Z,89.5
2018-06-20T04:23:38.177Z,90.1
2018-06-20T04:25:29.774Z,91.4
2018-06-20T04:25:49.982Z,91.5
2018-06-20T04:27:02.521Z,90.6
2018-06-20T04:27:22.672Z,91.5
2018-06-20T04:28:16.772Z,91.5
2018-06-20T04:28:37.051Z,91.7
2018-06-20T04:29:31.133Z,91.5
2018-06-20T04:29:51.298Z,91.5
2018-06-20T04:30:45.506Z,90.9
2018-06-20T04:31:05.658Z,91.1
2018-06-20T04:31:59.754Z,91.8
2018-06-20T04:32:19.918Z,92.1
2018-06-20T04:33:14.114Z,92
2018-06-20T04:33:34.275Z,91.9
2018-06-20T04:34:28.374Z,92.1
2018-06-20T04:34:48.658Z,91.7
2018-06-20T04:36:07.505Z,90.2
2018-06-20T04:36:27.716Z,90.1
2018-06-20T04:37:21.905Z,90.7
2018-06-20T04:37:42.061Z,90
2018-06-20T04:38:02.236Z,89.9
2018-06-20T04:38:48.979Z,90.6
2018-06-20T04:39:09.144Z,91.1
2018-06-20T04:39:29.321Z,90.6
2018-06-20T04:39:49.458Z,90.8
2018-06-20T04:40:09.606Z,90.8
2018-06-20T04:40:29.766Z,91.5
2018-06-20T04:40:49.920Z,91.7
2018-06-20T04:41:10.076Z,91.5
2018-06-20T04:41:30.264Z,90.8
2018-06-20T04:41:50.424Z,90.8
2018-06-20T04:42:10.567Z,90.8
2018-06-20T04:42:30.702Z,91.2
2018-06-20T04:42:50.846Z,90.9
2018-06-20T04:43:11.004Z,91.4
2018-06-20T04:43:31.189Z,91.4
2018-06-20T04:43:51.374Z,91.6
2018-06-20T04:44:11.576Z,91.3
2018-06-20T04:44:31.740Z,91
2018-06-20T04:44:51.862Z,90.5
2018-06-20T04:45:12.042Z,91.2
2018-06-20T04:45:32.223Z,90.9
2018-06-20T04:45:52.418Z,90.4
2018-06-20T04:46:12.569Z,90.5
2018-06-20T04:46:32.724Z,91.1
2018-06-20T04:46:52.887Z,90.8
2018-06-20T04:47:13.039Z,91.3
2018-06-20T04:47:33.245Z,90.9
2018-06-20T04:47:53.400Z,90.7
2018-06-20T04:48:13.566Z,90.6
2018-06-20T04:48:33.706Z,90.7
2018-06-20T04:48:53.841Z,90.5
2018-06-20T04:49:14.003Z,90.6
2018-06-20T04:49:34.169Z,90.8
2018-06-20T04:49:54.312Z,90.6
2018-06-20T04:50:14.456Z,90.8
2018-06-20T04:50:34.628Z,90.4
2018-06-20T04:50:54.806Z,90.4
2018-06-20T04:51:14.977Z,90.4
2018-06-20T04:51:35.138Z,89.9
2018-06-20T04:51:55.319Z,90.4
2018-06-20T04:52:15.459Z,90.9
2018-06-20T04:52:35.618Z,90.8
2018-06-20T04:52:55.776Z,90.3
2018-06-20T04:53:15.925Z,90.6
2018-06-20T04:53:36.105Z,90.7
2018-06-20T04:53:56.257Z,90.3
2018-06-20T04:54:16.427Z,90.4
2018-06-20T04:54:36.609Z,89.6
2018-06-20T04:54:57.710Z,89.7
2018-06-20T04:55:17.878Z,89.8
2018-06-20T04:55:38.130Z,90.1
2018-06-20T04:55:58.263Z,90
2018-06-20T04:56:18.419Z,89.3
2018-06-20T04:56:38.566Z,89.7
2018-06-20T04:56:58.724Z,89.7
2018-06-20T04:57:18.898Z,89.5
2018-06-20T04:57:39.078Z,89.3
2018-06-20T04:57:59.235Z,89.4
2018-06-20T04:58:19.419Z,89.5
2018-06-20T04:58:39.549Z,89.6
2018-06-20T04:58:59.720Z,89.1
2018-06-20T04:59:19.873Z,89.1
2018-06-20T04:59:40.024Z,89.1
2018-06-20T05:00:00.178Z,89.1
2018-06-20T05:00:20.352Z,89.1
2018-06-20T05:00:40.533Z,89.1
2018-06-20T05:01:00.675Z,88.8
2018-06-20T05:01:20.857Z,88.9
2018-06-20T05:01:41.055Z,88.6
2018-06-20T05:02:01.174Z,88.9
2018-06-20T05:02:21.357Z,88.6
2018-06-20T05:02:41.491Z,88.5
2018-06-20T05:03:01.662Z,88.3
2018-06-20T05:03:21.855Z,88.1
2018-06-20T05:03:42.005Z,88.5
2018-06-20T05:04:02.172Z,88.2
2018-06-20T05:04:22.477Z,88.2
2018-06-20T05:04:42.507Z,88.1
2018-06-20T05:05:02.723Z,88.1
2018-06-20T05:05:22.921Z,88.1
2018-06-20T05:05:43.067Z,87.8
2018-06-20T05:06:03.238Z,88.2
2018-06-20T05:06:23.391Z,88.2
2018-06-20T05:06:43.590Z,88.6
2018-06-20T05:07:03.762Z,88.6
2018-06-20T05:07:23.935Z,88.6
2018-06-20T05:07:44.076Z,87.9
2018-06-20T05:24:07.699Z,86.8
2018-06-20T05:28:32.119Z,86.6
2018-06-20T05:30:15.471Z,85.9
2018-06-20T05:38:32.243Z,86.1
2018-06-20T05:40:47.788Z,86.4
2018-06-20T05:41:52.234Z,87.7
2018-06-20T05:42:30.963Z,87.2
2018-06-20T05:43:09.678Z,87
2018-06-20T05:43:29.842Z,86.7
2018-06-20T05:44:01.362Z,86.8
2018-06-20T05:44:21.573Z,86.2
2018-06-20T05:45:05.821Z,86.1
2018-06-20T05:45:25.982Z,86.7
2018-06-20T05:45:46.148Z,86.9
2018-06-20T05:46:06.369Z,87.4
2018-06-20T05:46:26.541Z,87.4
2018-06-20T05:46:46.671Z,87
2018-06-20T05:47:06.813Z,86.5
2018-06-20T05:48:45.219Z,86.3
2018-06-20T05:49:43.384Z,86.5
2018-06-20T05:50:28.516Z,86.3
2018-06-20T05:51:13.759Z,86.7
2018-06-20T05:51:33.933Z,86.2
2018-06-20T05:52:05.340Z,86.2
2018-06-20T05:52:44.082Z,86.3
2018-06-20T05:53:04.254Z,85.7
2018-06-20T05:53:35.747Z,86
2018-06-20T05:53:56.091Z,85.9
2018-06-20T05:54:16.234Z,85.7
2018-06-20T05:54:36.392Z,85
2018-06-20T05:54:56.541Z,85.3
2018-06-20T05:55:38.507Z,83.3
2018-06-20T05:55:58.799Z,82.4
2018-06-20T05:56:30.205Z,83.8
2018-06-20T05:56:50.413Z,84.1
2018-06-20T05:57:34.774Z,84.5
2018-06-20T05:58:13.471Z,84
2018-06-20T05:58:52.299Z,84.3
2018-06-20T05:59:12.478Z,84.5
2018-06-20T05:59:32.657Z,84.6
2018-06-20T05:59:52.810Z,84.1
2018-06-20T06:00:29.134Z,84.6
2018-06-20T06:00:49.322Z,84.4
2018-06-20T06:01:09.493Z,84.9
2018-06-20T06:01:29.682Z,84.5
2018-06-20T06:01:49.842Z,83.7
2018-06-20T06:02:10.028Z,83.6
2018-06-20T06:02:30.210Z,83.7
2018-06-20T06:02:50.370Z,83.6
2018-06-20T06:03:10.534Z,83.9
2018-06-20T06:03:30.696Z,84.2
2018-06-20T06:03:50.854Z,84.9
2018-06-20T06:04:11.003Z,84.2
2018-06-20T06:04:31.170Z,84.7
2018-06-20T06:04:51.326Z,85.3
2018-06-20T06:05:11.628Z,85.7
2018-06-20T06:05:31.731Z,85.6
2018-06-20T06:05:51.876Z,85.7
2018-06-20T06:06:12.067Z,85.7
2018-06-20T06:06:32.239Z,85.7
2018-06-20T06:06:52.429Z,84.1
2018-06-20T06:07:12.659Z,83.5
2018-06-20T06:07:32.824Z,83.4
2018-06-20T06:07:52.992Z,83.6
2018-06-20T06:08:13.224Z,83.7
2018-06-20T06:08:33.373Z,84.3
2018-06-20T06:08:53.563Z,84.2
2018-06-20T06:09:13.738Z,84.8
2018-06-20T06:09:33.883Z,85.7
2018-06-20T06:09:54.056Z,85.8
2018-06-20T06:10:14.259Z,85.7
2018-06-20T06:10:34.537Z,86.4
2018-06-20T06:10:54.853Z,86.4
2018-06-20T06:11:15.189Z,85.9
2018-06-20T06:11:35.469Z,86.1
2018-06-20T06:11:55.795Z,85.4
2018-06-20T06:12:16.141Z,85.7
2018-06-20T06:12:36.437Z,84.9
2018-06-20T06:12:56.669Z,85.3
2018-06-20T06:13:16.898Z,84.5
2018-06-20T06:13:37.212Z,84.3
2018-06-20T06:13:57.517Z,84.4
2018-06-20T06:14:17.853Z,84.5
2018-06-20T06:14:38.166Z,84.8
2018-06-20T06:14:58.423Z,84.6
2018-06-20T06:15:18.648Z,84.3
2018-06-20T06:15:38.878Z,83.9
2018-06-20T06:15:59.123Z,83.6
2018-06-20T06:16:19.552Z,83.7
2018-06-20T06:16:39.856Z,83.4
2018-06-20T06:17:00.141Z,84.1
2018-06-20T06:17:20.414Z,83.3
2018-06-20T06:17:40.716Z,83.2
2018-06-20T06:18:00.994Z,83.9
2018-06-20T06:18:21.193Z,83.8
2018-06-20T06:18:41.522Z,83.9
2018-06-20T06:19:01.706Z,83.4
2018-06-20T06:19:21.917Z,83.6
2018-06-20T06:19:42.168Z,83.8
2018-06-20T06:20:02.525Z,83.7
2018-06-20T06:20:22.997Z,84.3
2018-06-20T06:20:43.394Z,84.3
2018-06-20T06:21:03.654Z,84.4
2018-06-20T06:21:23.902Z,82.8
2018-06-20T06:21:44.216Z,81.9
2018-06-20T06:22:04.581Z,80.7
2018-06-20T06:22:24.846Z,80.4
2018-06-20T06:22:45.126Z,80.3
2018-06-20T06:23:05.457Z,80.7
2018-06-20T06:23:25.802Z,80.6
2018-06-20T06:23:46.025Z,80.1
2018-06-20T06:24:06.337Z,80.6
2018-06-20T06:24:27.620Z,81.3
2018-06-20T06:24:47.945Z,82.2
2018-06-20T06:25:08.287Z,82.6
2018-06-20T06:25:28.570Z,82.8
2018-06-20T06:25:48.817Z,83.5
2018-06-20T06:26:09.212Z,83.7
2018-06-20T06:26:29.507Z,83.6
2018-06-20T06:26:49.742Z,84.1
2018-06-20T06:27:10.035Z,83.2
2018-06-20T06:27:30.273Z,82
2018-06-20T06:27:50.494Z,82.3
2018-06-20T06:28:10.702Z,82.8
2018-06-20T06:28:30.947Z,81.9
2018-06-20T06:28:51.265Z,81.4
2018-06-20T06:29:11.533Z,81.7
2018-06-20T06:29:31.811Z,82
2018-06-20T06:29:52.091Z,81.8
2018-06-20T06:30:12.424Z,82.6
2018-06-20T06:30:32.764Z,82.7
2018-06-20T06:30:53.220Z,82.9
2018-06-20T06:31:13.510Z,82.7
2018-06-20T06:31:33.771Z,82
2018-06-20T06:31:54.017Z,81.8
2018-06-20T06:32:14.295Z,81.5
2018-06-20T06:32:34.484Z,81.9
2018-06-20T06:32:54.759Z,81.9
2018-06-20T06:33:15.021Z,81.8
2018-06-20T06:33:35.249Z,82.2
2018-06-20T06:33:55.498Z,83
2018-06-20T06:34:15.852Z,82.3
2018-06-20T06:34:36.173Z,81.8
2018-06-20T06:34:56.521Z,81.5
2018-06-20T06:35:16.967Z,82.1
2018-06-20T06:35:37.315Z,83
2018-06-20T06:35:57.633Z,83.6
2018-06-20T06:36:17.923Z,83.9
2018-06-20T06:36:38.210Z,83.9
2018-06-20T06:36:58.493Z,83.6
2018-06-20T06:37:18.802Z,82.1
2018-06-20T06:37:39.197Z,81.4
2018-06-20T06:37:59.464Z,81.5
2018-06-20T06:38:19.833Z,82
2018-06-20T06:38:40.173Z,82.3
2018-06-20T06:39:00.386Z,81.4
2018-06-20T06:39:20.686Z,81.6
2018-06-20T06:39:41.030Z,82.1
2018-06-20T06:40:01.360Z,81.8
2018-06-20T06:40:21.701Z,81
2018-06-20T06:40:42.036Z,81.6
2018-06-20T06:41:02.345Z,81.6
2018-06-20T06:41:22.599Z,81.3
2018-06-20T06:41:42.855Z,80.9
2018-06-20T06:42:04.114Z,81.1
2018-06-20T06:42:24.465Z,80.8
2018-06-20T06:42:44.774Z,81.3
2018-06-20T06:43:06.104Z,81.3
2018-06-20T06:43:26.981Z,81.5
2018-06-20T06:43:47.315Z,81
2018-06-20T06:44:07.638Z,81
2018-06-20T06:44:28.044Z,81.3
2018-06-20T06:44:48.289Z,81.5
2018-06-20T06:45:08.669Z,81.9
2018-06-20T06:45:28.884Z,81.7
2018-06-20T06:45:49.132Z,82.1
2018-06-20T06:46:09.427Z,81.9
2018-06-20T06:46:29.774Z,81.6
2018-06-20T06:46:50.086Z,81.5
2018-06-20T06:47:10.452Z,81.3
2018-06-20T06:47:30.835Z,81.5
2018-06-20T06:47:51.140Z,80.7
2018-06-20T06:48:11.384Z,81
2018-06-20T06:48:31.733Z,80.8
2018-06-20T06:48:52.019Z,80.9
2018-06-20T06:49:12.265Z,81.6
2018-06-20T06:49:32.679Z,81.5
2018-06-20T06:49:53.236Z,81
2018-06-20T06:50:13.822Z,81.1
2018-06-20T06:50:34.173Z,80.2
2018-06-20T06:50:54.397Z,80.1
2018-06-20T06:51:14.625Z,80.9
2018-06-20T06:51:35.004Z,81.2
2018-06-20T06:51:55.411Z,81.6
2018-06-20T06:52:15.658Z,81.8
2018-06-20T06:52:35.993Z,83.2
2018-06-20T06:52:56.288Z,82.6
2018-06-20T06:53:16.520Z,82.1
2018-06-20T06:53:36.835Z,81.8
2018-06-20T06:53:57.082Z,81.5
2018-06-20T06:54:17.212Z,80.7
2018-06-20T06:54:37.377Z,80.4
2018-06-20T06:54:58.127Z,80.4
2018-06-20T06:55:18.285Z,80.6
2018-06-20T06:55:38.490Z,81.2
2018-06-20T06:55:58.750Z,80.9
2018-06-20T06:56:18.847Z,80.7
2018-06-20T06:56:39.112Z,80.9
2018-06-20T06:56:59.281Z,80.7
2018-06-20T06:57:19.473Z,81.2
2018-06-20T06:57:39.646Z,80.4
2018-06-20T06:57:59.830Z,81.1
2018-06-20T06:58:19.979Z,80.7
2018-06-20T06:58:40.193Z,81.1
2018-06-20T06:59:00.424Z,80.7
2018-06-20T06:59:20.577Z,81.7
2018-06-20T06:59:40.752Z,81.7
2018-06-20T07:00:00.911Z,81.6
2018-06-20T07:00:21.070Z,81
2018-06-20T07:00:41.233Z,81.2
2018-06-20T07:01:01.403Z,80.6
2018-06-20T07:01:21.559Z,79.9
2018-06-20T07:01:41.745Z,80
2018-06-20T07:02:01.903Z,79.9
2018-06-20T07:02:22.047Z,80.3
2018-06-20T07:02:42.209Z,79.6
2018-06-20T07:03:02.314Z,80
2018-06-20T07:03:22.474Z,80.3
2018-06-20T07:03:42.633Z,80.7
2018-06-20T07:04:02.836Z,80.5
2018-06-20T07:04:23.014Z,80.6
2018-06-20T07:04:43.242Z,80.7
2018-06-20T07:05:03.483Z,81.1
2018-06-20T07:05:24.632Z,80.5
2018-06-20T07:05:45.607Z,80.4
2018-06-20T07:06:05.768Z,80.7
2018-06-20T07:06:25.988Z,81.7
2018-06-20T07:06:46.220Z,80.4
2018-06-20T07:07:06.385Z,79.8
2018-06-20T07:07:26.538Z,79.8
2018-06-20T07:07:46.734Z,79.8
2018-06-20T07:08:07.061Z,79.9
2018-06-20T07:08:27.296Z,79.8
2018-06-20T07:08:47.453Z,80.5
2018-06-20T07:09:07.647Z,79.9
2018-06-20T07:09:27.842Z,79.4
2018-06-20T07:09:48.002Z,79.9
2018-06-20T07:10:08.187Z,80
2018-06-20T07:10:28.602Z,80.1
2018-06-20T07:10:48.892Z,80
2018-06-20T07:11:09.279Z,79.4
2018-06-20T07:11:29.510Z,79.3
2018-06-20T07:11:49.723Z,80.4
2018-06-20T07:12:10.022Z,80.1
2018-06-20T07:12:30.207Z,80.4
2018-06-20T07:12:50.371Z,80.1
2018-06-20T07:13:10.529Z,80.5
2018-06-20T07:13:30.693Z,81
2018-06-20T07:13:50.844Z,80.3
2018-06-20T07:14:11.053Z,80.7
2018-06-20T07:14:31.228Z,80.7
2018-06-20T07:14:51.423Z,81
2018-06-20T07:15:11.583Z,80.1
2018-06-20T07:15:31.770Z,79.2
2018-06-20T07:15:51.946Z,79.4
2018-06-20T07:16:12.113Z,78.4
2018-06-20T07:16:32.274Z,79.5
2018-06-20T07:16:52.491Z,79.6
2018-06-20T07:17:12.641Z,79.5
2018-06-20T07:17:32.797Z,79.4
2018-06-20T07:17:52.948Z,79.6
2018-06-20T07:18:13.104Z,79.4
2018-06-20T07:18:33.284Z,79.8
2018-06-20T07:18:53.416Z,80.3
2018-06-20T07:19:13.578Z,80.4
2018-06-20T07:19:33.726Z,79.5
2018-06-20T07:19:53.919Z,79.7
2018-06-20T07:20:14.169Z,79.4
2018-06-20T07:20:34.461Z,79.1
2018-06-20T07:20:54.980Z,78.6
2018-06-20T07:21:15.224Z,78.8
2018-06-20T07:21:35.387Z,78.6
2018-06-20T07:21:55.559Z,78.4
2018-06-20T07:22:15.719Z,78.6
2018-06-20T07:22:35.877Z,77.5
2018-06-20T07:22:56.084Z,77.8
2018-06-20T07:23:16.248Z,77.7
2018-06-20T07:23:36.421Z,78.7
2018-06-20T07:23:56.747Z,78.6
2018-06-20T07:24:17.005Z,78.5
2018-06-20T07:24:37.395Z,78.1
2018-06-20T07:24:57.637Z,77.6
2018-06-20T07:25:17.764Z,77.6
2018-06-20T07:25:37.923Z,77.6
2018-06-20T07:25:58.080Z,77.1
2018-06-20T07:26:18.252Z,76.6
2018-06-20T07:26:38.418Z,76.7
2018-06-20T07:26:58.569Z,77.5
2018-06-20T07:27:18.739Z,77.7
2018-06-20T07:27:38.926Z,77.3
2018-06-20T07:27:59.108Z,78
2018-06-20T07:28:19.269Z,77.3
2018-06-20T07:28:39.429Z,77.5
2018-06-20T07:28:59.602Z,77.8
2018-06-20T07:29:19.851Z,78.3
2018-06-20T07:29:39.920Z,78.3
2018-06-20T07:30:00.186Z,78
2018-06-20T07:30:20.625Z,77.7
2018-06-20T07:30:40.845Z,77.5
2018-06-20T07:31:00.920Z,76.9
2018-06-20T07:31:21.081Z,76.1
2018-06-20T07:31:41.216Z,75.7
2018-06-20T07:32:01.444Z,76.3
2018-06-20T07:32:21.579Z,75.5
2018-06-20T07:32:41.732Z,75.6
2018-06-20T07:33:01.887Z,75.6
2018-06-20T07:33:22.048Z,75.4
2018-06-20T07:33:42.251Z,75.5
2018-06-20T07:34:02.495Z,76.1
2018-06-20T07:34:22.673Z,76.5
2018-06-20T07:34:42.811Z,76.8
2018-06-20T07:35:02.954Z,76.6
2018-06-20T07:35:23.125Z,76.7
2018-06-20T07:35:43.783Z,77.3
2018-06-20T07:36:04.144Z,76.7
2018-06-20T07:36:24.379Z,76.5
2018-06-20T07:36:44.479Z,76.7
2018-06-20T07:37:04.631Z,76.4
2018-06-20T07:37:24.791Z,76.1
2018-06-20T07:37:44.934Z,75.8
2018-06-20T07:38:05.115Z,76
2018-06-20T07:38:25.283Z,75.6
2018-06-20T07:38:45.485Z,75.6
2018-06-20T07:39:06.153Z,76.3
2018-06-20T07:39:26.349Z,76.1
2018-06-20T07:39:46.527Z,76.3
2018-06-20T07:40:06.666Z,76.2
2018-06-20T07:40:26.817Z,75.9
2018-06-20T07:40:47.016Z,76.2
2018-06-20T07:41:07.195Z,76.2
2018-06-20T07:41:27.371Z,76
2018-06-20T07:41:47.546Z,75.4
2018-06-20T07:42:07.733Z,75
2018-06-20T07:42:27.879Z,75
2018-06-20T07:42:48.050Z,74.8
2018-06-20T07:43:08.188Z,74.7
2018-06-20T07:43:28.356Z,76
2018-06-20T07:43:48.590Z,77.7
2018-06-20T07:44:08.860Z,77.1
2018-06-20T07:44:29.030Z,76.4
2018-06-20T07:44:49.202Z,76.4
2018-06-20T07:45:09.361Z,75.6
2018-06-20T07:45:29.558Z,76.8
2018-06-20T07:45:49.709Z,76.3
2018-06-20T07:46:09.864Z,74.7
2018-06-20T07:46:30.036Z,74.7
2018-06-20T07:46:50.242Z,75.3
2018-06-20T07:47:10.413Z,74.7
2018-06-20T07:47:30.579Z,74.1
2018-06-20T07:47:50.770Z,75.2
2018-06-20T07:48:10.897Z,75.4
2018-06-20T07:48:31.333Z,75.9
2018-06-20T07:48:51.602Z,76.2
2018-06-20T07:49:11.831Z,75.6
2018-06-20T07:49:32.009Z,75.2
2018-06-20T07:49:52.236Z,75.2
2018-06-20T07:50:12.409Z,76.4
2018-06-20T07:50:32.595Z,75.4
2018-06-20T07:50:52.781Z,76
2018-06-20T07:51:12.952Z,75.6
2018-06-20T07:51:33.121Z,75.9
2018-06-20T07:51:53.287Z,75.4
2018-06-20T07:52:13.448Z,74.1
2018-06-20T07:52:33.632Z,74.3
2018-06-20T07:52:53.814Z,74.2
2018-06-20T07:53:13.987Z,74.3
2018-06-20T07:53:34.120Z,74.3
2018-06-20T07:53:54.315Z,75.4
2018-06-20T07:54:14.493Z,76.2
2018-06-20T07:54:34.696Z,76.6
2018-06-20T07:54:54.854Z,76.8
2018-06-20T07:55:15.015Z,75.3
2018-06-20T07:55:35.171Z,74.6
2018-06-20T07:55:55.343Z,75.6
2018-06-20T07:56:15.509Z,75.3
2018-06-20T07:56:35.653Z,75.4
2018-06-20T07:56:55.816Z,75.2
2018-06-20T07:57:15.994Z,74.3
2018-06-20T07:57:36.158Z,74.1
2018-06-20T07:57:56.321Z,73.9
2018-06-20T07:58:16.478Z,73.5
2018-06-20T07:58:36.656Z,73.7
2018-06-20T07:58:56.823Z,74.1
2018-06-20T07:59:16.995Z,74.2
2018-06-20T07:59:37.175Z,73.8
2018-06-20T07:59:57.356Z,72.7
2018-06-20T08:00:17.556Z,72.8
2018-06-20T08:00:37.739Z,73
2018-06-20T08:00:57.976Z,73.7
2018-06-20T08:01:18.053Z,73.4
2018-06-20T08:01:38.211Z,73.5
2018-06-20T08:01:58.418Z,73.9
2018-06-20T08:02:18.620Z,74
2018-06-20T08:02:38.787Z,74.2
2018-06-20T08:02:58.955Z,74.3
2018-06-20T08:03:19.090Z,73.5
2018-06-20T08:03:39.239Z,73.7
2018-06-20T08:03:59.388Z,74.3
2018-06-20T08:04:19.547Z,74.2
2018-06-20T08:04:39.731Z,75.8
2018-06-20T08:04:59.866Z,75.9
2018-06-20T08:05:20.013Z,76.6
2018-06-20T08:05:40.184Z,76
2018-06-20T08:06:00.362Z,75.8
2018-06-20T08:06:20.639Z,75.6
2018-06-20T08:06:40.757Z,75.4
2018-06-20T08:07:00.943Z,76.5
2018-06-20T08:07:21.149Z,76.5
2018-06-20T08:07:41.330Z,76.3
2018-06-20T08:08:01.575Z,75.9
2018-06-20T08:08:22.498Z,75.8
2018-06-20T08:08:42.696Z,75.2
2018-06-20T08:09:02.934Z,74.4
2018-06-20T08:09:23.122Z,73.2
2018-06-20T08:09:43.395Z,72.5
2018-06-20T08:10:03.780Z,72.6
2018-06-20T08:10:24.126Z,73.2
2018-06-20T08:10:44.401Z,72
2018-06-20T08:11:05.183Z,72.2
2018-06-20T08:11:26.702Z,72.9
2018-06-20T08:11:46.999Z,74
2018-06-20T08:12:07.311Z,75.6
2018-06-20T08:12:27.577Z,74.2
2018-06-20T08:12:47.981Z,71.4
2018-06-20T08:13:08.307Z,72.5
2018-06-20T08:13:28.592Z,72.6
2018-06-20T08:13:48.772Z,72.5
2018-06-20T08:14:08.887Z,72.9
2018-06-20T08:14:29.070Z,73.3
2018-06-20T08:14:49.247Z,72.9
2018-06-20T08:15:09.440Z,73.3
2018-06-20T08:15:29.620Z,73.1
2018-06-20T08:15:49.830Z,73.4
2018-06-20T08:16:10.086Z,74.6
2018-06-20T08:16:31.252Z,73.8
2018-06-20T08:16:51.631Z,73.6
2018-06-20T08:17:11.961Z,72.6
2018-06-20T08:17:32.268Z,73.3
2018-06-20T08:17:52.490Z,73.7
2018-06-20T08:18:12.750Z,73.8
2018-06-20T08:18:32.922Z,74.4
2018-06-20T08:18:53.145Z,74.1
2018-06-20T08:19:13.277Z,73.3
2018-06-20T08:19:33.400Z,73.7
2018-06-20T08:19:53.729Z,73.9
2018-06-20T08:20:14.056Z,73.5
2018-06-20T08:20:35.244Z,73.5
2018-06-20T08:20:55.521Z,73.2
2018-06-20T08:21:18.221Z,75.4
2018-06-20T08:21:38.483Z,75.6
2018-06-20T08:21:58.831Z,75.2
2018-06-20T08:22:19.020Z,75
2018-06-20T08:22:39.260Z,76.1
2018-06-20T08:22:59.567Z,75.9
2018-06-20T08:23:19.812Z,74.8
2018-06-20T08:23:39.987Z,73.9
2018-06-20T08:24:00.142Z,74.2
2018-06-20T08:24:20.369Z,74.9
2018-06-20T08:24:40.649Z,75
2018-06-20T08:25:01.777Z,73.5
2018-06-20T08:25:22.092Z,72.9
2018-06-20T08:25:42.351Z,73.6
2018-06-20T08:26:02.516Z,72.7
2018-06-20T08:26:22.691Z,72.3
2018-06-20T08:26:42.848Z,72.6
2018-06-20T08:27:02.997Z,73.2
2018-06-20T08:27:23.167Z,73.3
2018-06-20T08:27:43.343Z,73.5
2018-06-20T08:28:03.511Z,73.3
2018-06-20T08:28:23.712Z,74.3
2018-06-20T08:28:44.031Z,74.3
2018-06-20T08:29:04.937Z,74.4
2018-06-20T08:29:25.187Z,74.1
2018-06-20T08:29:45.551Z,74.5
2018-06-20T08:30:06.655Z,74
2018-06-20T08:30:26.848Z,73.5
2018-06-20T08:30:46.969Z,73.6
2018-06-20T08:31:07.140Z,72.5
2018-06-20T08:31:27.387Z,72.5
2018-06-20T08:31:47.628Z,72.1
2018-06-20T08:32:07.892Z,69.7
2018-06-20T08:32:28.308Z,69.2
2018-06-20T08:32:48.579Z,69.6
2018-06-20T08:33:08.757Z,69.3
2018-06-20T08:33:28.886Z,70
2018-06-20T08:33:49.081Z,70.4
2018-06-20T08:34:09.237Z,70.6
2018-06-20T08:34:29.478Z,70.2
2018-06-20T08:34:49.780Z,70.5
2018-06-20T08:35:09.995Z,70.9
2018-06-20T08:35:30.137Z,70.5
2018-06-20T08:35:50.298Z,69.7
2018-06-20T08:36:10.459Z,68.7
2018-06-20T08:36:30.623Z,68.3
2018-06-20T08:36:50.773Z,68.8
2018-06-20T08:37:10.900Z,68.6
2018-06-20T08:37:31.088Z,68.6
2018-06-20T08:37:51.262Z,68.8
2018-06-20T08:38:11.550Z,69.7
2018-06-20T08:38:31.775Z,71.6
2018-06-20T08:38:51.947Z,71.7
2018-06-20T08:39:12.137Z,70.2
2018-06-20T08:39:32.322Z,69.2
2018-06-20T08:39:52.656Z,69.8
2018-06-20T08:40:13.546Z,69.5
2018-06-20T08:40:33.729Z,69.4
2018-06-20T08:40:53.857Z,68.4
2018-06-20T08:41:13.976Z,70.5
2018-06-20T08:41:34.151Z,69.7
2018-06-20T08:41:54.313Z,69.8
2018-06-20T08:42:15.222Z,69.6
2018-06-20T08:42:35.773Z,70
2018-06-20T08:42:55.911Z,69.8
2018-06-20T08:43:16.053Z,69.8
2018-06-20T08:43:36.293Z,69.5
2018-06-20T08:43:56.475Z,69.2
2018-06-20T08:44:16.648Z,69
2018-06-20T08:44:36.807Z,68.6
2018-06-20T08:44:57.015Z,68.3
2018-06-20T08:45:17.188Z,68.9
2018-06-20T08:45:37.327Z,69.3
2018-06-20T08:45:57.559Z,68.8
2018-06-20T08:46:17.740Z,68.6
2018-06-20T08:46:37.929Z,68
2018-06-20T08:46:58.072Z,68.2
2018-06-20T08:47:18.227Z,66.9
2018-06-20T08:47:38.351Z,66.2
2018-06-20T08:47:58.521Z,65.5
2018-06-20T08:48:18.895Z,65.7
2018-06-20T08:48:39.020Z,67.2
2018-06-20T08:48:59.192Z,67.5
2018-06-20T08:49:19.335Z,68.1
2018-06-20T08:49:39.538Z,67.3
2018-06-20T08:49:59.697Z,67.1
2018-06-20T08:50:20.647Z,66.5
2018-06-20T08:50:41.733Z,66.5
2018-06-20T08:51:01.967Z,66.2
2018-06-20T08:51:22.085Z,67
2018-06-20T08:51:42.244Z,66.4
2018-06-20T08:52:02.407Z,66.2
2018-06-20T08:52:22.563Z,66.6
2018-06-20T08:52:42.980Z,66.2
2018-06-20T08:53:03.312Z,66.6
2018-06-20T08:53:26.252Z,68.5
2018-06-20T08:53:48.607Z,66.7
2018-06-20T08:54:09.080Z,65.7
2018-06-20T08:54:29.412Z,65.9
2018-06-20T08:54:49.724Z,66.6
2018-06-20T08:55:09.837Z,68.8
2018-06-20T08:55:30.171Z,69.3
2018-06-20T08:55:50.537Z,67.2
2018-06-20T08:56:10.818Z,66.9
2018-06-20T08:56:32.262Z,66.7
2018-06-20T08:56:52.648Z,64.8
2018-06-20T08:57:12.984Z,65.6
2018-06-20T08:57:33.397Z,66.4
2018-06-20T08:57:53.554Z,66.2
2018-06-20T08:58:13.541Z,67.5
2018-06-20T08:58:33.720Z,67.6
2018-06-20T08:58:54.059Z,68
2018-06-20T08:59:14.164Z,67.5
2018-06-20T08:59:34.338Z,65.3
2018-06-20T08:59:54.654Z,65.5
2018-06-20T09:00:15.004Z,65.4
2018-06-20T09:00:35.732Z,65.3
2018-06-20T09:00:56.066Z,66.2
2018-06-20T09:01:16.385Z,66.4
2018-06-20T09:01:36.693Z,67.1
2018-06-20T09:01:57.724Z,67
2018-06-20T09:02:18.009Z,67.3
2018-06-20T09:02:38.225Z,67.5
2018-06-20T09:03:00.297Z,67.7
2018-06-20T09:03:20.547Z,67.4
2018-06-20T09:03:40.820Z,67.2
2018-06-20T09:04:00.985Z,67.6
2018-06-20T09:04:21.173Z,67.4
2018-06-20T09:04:41.336Z,66.6
2018-06-20T09:05:01.486Z,66.4
2018-06-20T09:05:21.644Z,66.2
2018-06-20T09:05:41.840Z,67.2
2018-06-20T09:06:02.056Z,67.2
2018-06-20T09:06:22.325Z,66.9
2018-06-20T09:06:42.537Z,66.7
2018-06-20T09:07:02.724Z,66.6
2018-06-20T09:07:22.879Z,66.9
2018-06-20T09:07:43.082Z,66.6
2018-06-20T09:08:03.250Z,66
2018-06-20T09:08:23.629Z,64.8
2018-06-20T09:08:44.098Z,63.5
2018-06-20T09:09:05.244Z,62.5
2018-06-20T09:09:25.434Z,62.5
2018-06-20T09:09:46.649Z,62.8
2018-06-20T09:10:07.025Z,62.9
2018-06-20T09:10:27.328Z,62.7
2018-06-20T09:10:47.604Z,62.1
2018-06-20T09:11:07.927Z,62.5
2018-06-20T09:11:28.485Z,62.6
2018-06-20T09:11:48.893Z,63.3
2018-06-20T09:12:09.230Z,62.8
2018-06-20T09:12:29.655Z,62.4
2018-06-20T09:12:49.907Z,62.6
2018-06-20T09:13:10.179Z,62.6
2018-06-20T09:13:30.596Z,62.8
2018-06-20T09:13:50.974Z,62.7
2018-06-20T09:14:11.387Z,62.6
2018-06-20T09:14:31.780Z,63
2018-06-20T09:14:52.126Z,63.3
2018-06-20T09:15:12.338Z,63.5
2018-06-20T09:15:35.104Z,63.5
2018-06-20T09:15:55.541Z,63.8
2018-06-20T09:16:15.903Z,64.7
2018-06-20T09:16:36.233Z,65
2018-06-20T09:16:56.592Z,64.5
2018-06-20T09:17:16.981Z,63.8
2018-06-20T09:17:37.323Z,63.8
2018-06-20T09:17:57.618Z,65.4
2018-06-20T09:18:17.775Z,65
2018-06-20T09:18:38.055Z,65.6
2018-06-20T09:18:58.271Z,66.7
2018-06-20T09:19:18.456Z,66.7
2018-06-20T09:19:39.748Z,64.8
2018-06-20T09:20:00.087Z,65.6
2018-06-20T09:20:20.456Z,65.1
2018-06-20T09:20:40.616Z,63.8
2018-06-20T09:21:00.829Z,62.8
2018-06-20T09:21:21.004Z,62.6
2018-06-20T09:21:41.141Z,61.2
2018-06-20T09:22:01.379Z,61.2
2018-06-20T09:22:21.524Z,60.4
2018-06-20T09:22:41.673Z,61.2
2018-06-20T09:23:01.832Z,61.4
2018-06-20T09:23:22.020Z,61.9
2018-06-20T09:23:42.190Z,62.7
2018-06-20T09:24:02.358Z,62.4
2018-06-20T09:24:22.546Z,63.2
2018-06-20T09:24:42.828Z,63.5
2018-06-20T09:25:03.008Z,63.8
2018-06-20T09:25:23.166Z,65.3
2018-06-20T09:25:43.307Z,65.7
2018-06-20T09:26:03.471Z,65.8
2018-06-20T09:26:23.638Z,66.3
2018-06-20T09:26:43.865Z,68.4
2018-06-20T09:27:04.020Z,68.5
2018-06-20T09:27:24.183Z,67.4
2018-06-20T09:27:44.374Z,68
2018-06-20T09:28:05.580Z,68.9
2018-06-20T09:28:25.856Z,67.5
2018-06-20T09:28:46.163Z,67.1
2018-06-20T09:29:06.344Z,66.3
2018-06-20T09:29:26.498Z,64.8
2018-06-20T09:29:46.686Z,64.9
2018-06-20T09:30:07.125Z,64.8
2018-06-20T09:30:27.283Z,65
2018-06-20T09:30:47.453Z,64.5
2018-06-20T09:31:07.633Z,63.8
2018-06-20T09:31:27.787Z,62.3
2018-06-20T09:31:48.810Z,62.5
2018-06-20T09:32:08.978Z,62.5
2018-06-20T09:32:29.235Z,62.6
2018-06-20T09:32:49.545Z,61.5
2018-06-20T09:33:09.772Z,61.2
2018-06-20T09:33:29.937Z,60.7
2018-06-20T09:33:50.238Z,61.5
2018-06-20T09:34:10.437Z,62.2
2018-06-20T09:34:30.739Z,63.3
2018-06-20T09:34:50.936Z,63.2
2018-06-20T09:35:11.087Z,63.3
2018-06-20T09:35:31.404Z,64
2018-06-20T09:35:51.632Z,62.6
2018-06-20T09:36:11.814Z,61
2018-06-20T09:36:32.098Z,62.9
2018-06-20T09:36:56.260Z,65.7
2018-06-20T09:37:17.168Z,64.3
2018-06-20T09:37:37.345Z,65.7
2018-06-20T09:37:57.517Z,64.6